Time;durP1;ratioP1;P1;durP2;ratioP2;P2;SDS_P1;SDS_P2;PMS_P1;PMS_P2;Temp;Humidity;BMP_temperature;BMP_pressure;BME280_temperature;BME280_humidity;BME280_pressure;Samples;Min_cycle;Max_cycle;Signal;HPM_P1;HPM_P2
2022/09/21 00:01:45;;;;;;;5.07;3.73;;;;;;;-141.28;100.00;49666.84;5105321;28;20503;-76
2022/09/21 00:04:12;;;;;;;4.00;3.60;;;;;;;-141.28;100.00;49643.31;5081731;28;20192;-78
2022/09/21 00:06:39;;;;;;;8.93;4.50;;;;;;;-141.28;100.00;49651.16;5072829;28;20443;-76
2022/09/21 00:09:08;;;;;;;12.13;4.87;;;;;;;-141.28;100.00;49629.56;5054246;28;20482;-74
2022/09/21 00:11:36;;;;;;;10.70;5.13;;;;;;;-141.28;100.00;49580.50;5091523;28;20450;-76
2022/09/21 00:14:06;;;;;;;10.27;4.80;;;;;;;-141.28;100.00;49545.19;5079582;28;20447;-76
2022/09/21 00:16:35;;;;;;;11.97;5.00;;;;;;;-141.28;100.00;49525.56;5105486;28;20449;-75
2022/09/21 00:19:05;;;;;;;8.23;5.47;;;;;;;-141.28;100.00;49488.28;5084140;28;20477;-73
2022/09/21 00:21:33;;;;;;;10.67;6.27;;;;;;;-141.28;100.00;49451.00;5078959;28;20478;-74
2022/09/21 00:24:02;;;;;;;10.90;5.40;;;;;;;-141.28;100.00;49456.88;5078259;28;20973;-74
2022/09/21 00:26:29;;;;;;;9.87;5.43;;;;;;;-141.28;100.00;49407.84;5105101;28;20955;-76
2022/09/21 00:28:58;;;;;;;8.93;5.33;;;;;;;-141.28;100.00;49415.69;5112564;28;20506;-75
2022/09/21 00:31:25;;;;;;;13.13;5.57;;;;;;;-141.28;100.00;49403.91;5111762;28;20970;-74
2022/09/21 00:33:53;;;;;;;10.10;5.67;;;;;;;-141.28;100.00;49399.97;5097428;28;20438;-76
2022/09/21 00:36:23;;;;;;;7.70;5.60;;;;;;;-141.28;100.00;49396.06;5054452;28;20450;-75
2022/09/21 00:38:52;;;;;;;6.90;5.20;;;;;;;-141.28;100.00;49376.44;5062901;28;20601;-75
2022/09/21 00:41:20;;;;;;;6.13;4.83;;;;;;;-141.28;100.00;49376.44;5090631;28;20845;-74
2022/09/21 00:43:49;;;;;;;6.47;5.13;;;;;;;-141.28;100.00;49356.81;5072842;28;20442;-77
2022/09/21 00:46:23;;;;;;;10.27;5.10;;;;;;;-141.28;100.00;49364.66;5072540;28;20511;-75
2022/09/21 00:48:49;;;;;;;7.23;4.80;;;;;;;-141.28;100.00;49364.66;5072390;28;20569;-74
2022/09/21 00:51:17;;;;;;;8.20;5.20;;;;;;;-141.28;100.00;49301.88;5072930;28;20442;-75
2022/09/21 00:53:47;;;;;;;8.67;5.37;;;;;;;-141.28;100.00;49294.03;5083435;28;20442;-76
2022/09/21 00:56:16;;;;;;;12.40;5.03;;;;;;;-141.28;100.00;49297.94;5096396;28;20448;-76
2022/09/21 00:58:48;;;;;;;8.77;5.57;;;;;;;-141.28;100.00;49305.78;5088283;28;20485;-77
2022/09/21 01:01:18;;;;;;;12.60;5.53;;;;;;;-141.28;100.00;49274.41;5091452;28;20499;-77
2022/09/21 01:03:46;;;;;;;6.60;4.80;;;;;;;-141.28;100.00;49309.72;5091349;28;20782;-76
2022/09/21 01:06:16;;;;;;;12.10;5.60;;;;;;;-141.28;100.00;49290.09;5091388;28;20840;-73
2022/09/21 01:08:47;;;;;;;8.90;5.40;;;;;;;-141.28;100.00;49262.63;5114067;28;20291;-73
2022/09/21 01:11:31;;;;;;;8.30;4.80;;;;;;;-141.28;100.00;49294.03;5107141;28;20506;-73
2022/09/21 01:14:17;;;;;;;8.67;4.90;;;;;;;-141.28;100.00;49286.16;5081855;28;20479;-75
2022/09/21 01:16:52;;;;;;;9.57;4.73;;;;;;;-141.28;100.00;49280.28;5096183;28;20938;-75
2022/09/21 01:19:32;;;;;;;7.03;4.93;;;;;;;-141.28;100.00;49235.16;5097644;28;20533;-75
2022/09/21 01:22:09;;;;;;;7.97;4.93;;;;;;;-141.28;100.00;49243.00;5071051;28;20440;-75
2022/09/21 01:24:52;;;;;;;5.87;4.47;;;;;;;-141.28;100.00;49241.03;5084457;28;20437;-74
2022/09/21 01:27:38;;;;;;;6.30;4.90;;;;;;;-141.28;100.00;49211.59;5071541;28;20441;-75
2022/09/21 01:30:11;;;;;;;8.23;4.80;;;;;;;-141.28;100.00;49176.28;5068891;28;20792;-75
2022/09/21 01:32:43;;;;;;;7.90;4.70;;;;;;;-141.28;100.00;49162.56;5074484;28;20440;-76
2022/09/21 01:35:15;;;;;;;5.97;4.40;;;;;;;-141.28;100.00;49148.81;5091157;28;20438;-74
2022/09/21 01:37:45;;;;;;;5.10;4.10;;;;;;;-141.28;100.00;49127.25;5091082;28;20451;-75
2022/09/21 01:40:17;;;;;;;7.27;4.80;;;;;;;-141.28;100.00;49137.06;5091667;28;21087;-75
2022/09/21 01:42:48;;;;;;;6.67;4.97;;;;;;;-141.28;100.00;49121.34;5084258;28;21018;-73
2022/09/21 01:45:21;;;;;;;6.43;4.77;;;;;;;-141.28;100.00;49119.38;5084148;28;20995;-74
2022/09/21 01:47:51;;;;;;;8.40;4.80;;;;;;;-141.28;100.00;49123.31;5070897;28;20913;-76
2022/09/21 01:50:20;;;;;;;8.90;5.17;;;;;;;-141.28;100.00;49133.13;5100812;28;21083;-76
2022/09/21 01:52:52;;;;;;;8.00;5.33;;;;;;;-141.28;100.00;49117.44;5084537;28;20559;-76
2022/09/21 01:55:27;;;;;;;7.00;4.63;;;;;;;-141.28;100.00;49105.66;5091110;28;20776;-74
2022/09/21 01:58:01;;;;;;;10.97;4.77;;;;;;;-141.28;100.00;49127.25;5072959;28;20458;-76
2022/09/21 02:00:31;;;;;;;6.63;5.10;;;;;;;-141.28;100.00;49105.66;5071017;28;20560;-74
2022/09/21 02:03:05;;;;;;;10.63;5.57;;;;;;;-141.28;100.00;49115.47;5103517;28;20466;-73
2022/09/21 02:05:33;;;;;;;5.33;4.57;;;;;;;-141.28;100.00;49089.97;5103100;28;20453;-77
2022/09/21 02:08:00;;;;;;;6.20;4.87;;;;;;;-141.28;100.00;49097.81;5090397;28;21056;-76
2022/09/21 02:10:33;;;;;;;6.63;4.77;;;;;;;-141.28;100.00;49101.72;5089308;28;20441;-74
2022/09/21 02:13:05;;;;;;;10.00;5.20;;;;;;;-141.28;100.00;49107.63;5080434;28;20771;-75
2022/09/21 02:15:47;;;;;;;5.70;4.50;;;;;;;-141.28;100.00;49129.19;5107236;28;20432;-75
2022/09/21 02:18:26;;;;;;;7.93;5.03;;;;;;;-141.28;100.00;49129.19;5098522;28;20944;-75
2022/09/21 02:20:57;;;;;;;8.10;4.60;;;;;;;-141.28;100.00;49140.97;5084515;28;20896;-75
2022/09/21 02:23:32;;;;;;;6.63;4.90;;;;;;;-141.28;100.00;49117.44;5110115;28;20440;-75
2022/09/21 02:26:09;;;;;;;10.90;5.00;;;;;;;-141.28;100.00;49121.34;5101799;28;20870;-77
2022/09/21 02:28:47;;;;;;;6.73;4.93;;;;;;;-141.28;100.00;49117.44;5090837;28;20426;-74
2022/09/21 02:31:31;;;;;;;7.83;4.73;;;;;;;-141.28;100.00;49105.66;5078690;28;21006;-75
2022/09/21 02:34:03;;;;;;;8.20;4.73;;;;;;;-141.28;100.00;49133.13;5071332;28;20450;-74
2022/09/21 02:36:38;;;;;;;5.50;4.93;;;;;;;-141.28;100.00;49101.72;5070760;28;20457;-74
2022/09/21 02:39:10;;;;;;;6.77;5.00;;;;;;;-141.28;100.00;49086.03;5070630;28;20477;-76
2022/09/21 02:41:48;;;;;;;7.57;5.30;;;;;;;-141.28;100.00;49089.97;5075742;28;20808;-75
2022/09/21 02:44:19;;;;;;;7.97;4.50;;;;;;;-141.28;100.00;49103.69;5107380;28;20436;-76
2022/09/21 02:46:53;;;;;;;6.00;4.37;;;;;;;-141.28;100.00;49097.81;5113973;28;20525;-76
2022/09/21 02:49:25;;;;;;;5.87;4.33;;;;;;;-141.28;100.00;49113.50;5113668;28;20483;-75
2022/09/21 02:51:58;;;;;;;8.53;4.80;;;;;;;-141.28;100.00;49117.44;5114149;28;20501;-75
2022/09/21 02:54:29;;;;;;;7.83;4.73;;;;;;;-141.28;100.00;49133.13;5099473;28;20545;-76
2022/09/21 02:56:58;;;;;;;9.27;4.50;;;;;;;-141.28;100.00;49129.19;5092856;28;20450;-75
2022/09/21 02:59:26;;;;;;;7.80;4.73;;;;;;;-141.28;100.00;49139.00;5073972;28;20482;-77
2022/09/21 03:05:00;;;;;;;6.10;4.37;;;;;;;-141.28;100.00;49164.53;5082279;28;20590;-80
2022/09/21 03:07:28;;;;;;;4.73;4.07;;;;;;;-141.28;100.00;49117.44;5087750;28;20806;-78
2022/09/21 03:09:55;;;;;;;10.20;4.10;;;;;;;-141.28;100.00;49140.97;5107064;28;20977;-74
2022/09/21 03:12:22;;;;;;;7.23;4.47;;;;;;;-141.28;100.00;49152.75;5102560;28;20502;-74
2022/09/21 03:14:50;;;;;;;17.03;5.63;;;;;;;-141.28;100.00;49160.59;5095687;28;20454;-75
2022/09/21 03:17:18;;;;;;;30.17;6.53;;;;;;;-141.28;100.00;49176.28;5093375;28;20442;-75
2022/09/21 03:19:45;;;;;;;10.77;4.43;;;;;;;-141.28;100.00;49156.66;5110164;28;20534;-76
2022/09/21 03:22:12;;;;;;;6.60;4.07;;;;;;;-141.28;100.00;49186.09;5113359;28;20441;-74
2022/09/21 03:24:48;;;;;;;8.03;4.63;;;;;;;-141.28;100.00;49184.13;5097614;28;20440;-75
2022/09/21 03:27:17;;;;;;;9.40;4.23;;;;;;;-141.28;100.00;49203.75;5101260;28;20502;-75
2022/09/21 03:29:45;;;;;;;4.70;3.83;;;;;;;-141.28;100.00;49219.47;5109859;28;20996;-76
2022/09/21 03:32:12;;;;;;;4.50;3.80;;;;;;;-141.28;100.00;49199.84;5099401;28;20503;-75
2022/09/21 03:34:42;;;;;;;6.00;3.60;;;;;;;-141.28;100.00;49211.59;5110625;28;20445;-76
2022/09/21 03:37:11;;;;;;;11.77;3.60;;;;;;;-141.28;100.00;49227.31;5097791;28;20445;-76
2022/09/21 03:39:38;;;;;;;5.00;3.40;;;;;;;-141.28;100.00;49241.03;5086306;28;20477;-75
2022/09/21 03:42:05;;;;;;;4.77;3.90;;;;;;;-141.28;100.00;49243.00;5109580;28;21012;-73
2022/09/21 03:44:32;;;;;;;4.10;3.70;;;;;;;-141.28;100.00;49241.03;5111649;28;20498;-75
2022/09/21 03:46:59;;;;;;;6.00;3.50;;;;;;;-141.28;100.00;49246.94;5110014;28;20509;-76
2022/09/21 03:49:26;;;;;;;7.50;3.53;;;;;;;-141.28;100.00;49270.47;5080751;28;20543;-75
2022/09/21 03:51:55;;;;;;;7.80;3.77;;;;;;;-141.28;100.00;49266.56;5110954;28;20453;-75
2022/09/21 03:54:22;;;;;;;6.00;3.40;;;;;;;-141.28;100.00;49282.25;5098367;28;20520;-75
2022/09/21 03:56:49;;;;;;;4.97;3.60;;;;;;;-141.28;100.00;49294.03;5103701;28;20440;-77
2022/09/21 03:59:16;;;;;;;5.20;3.50;;;;;;;-141.28;100.00;49325.41;5098467;28;20874;-77
2022/09/21 04:01:44;;;;;;;7.23;3.60;;;;;;;-141.28;100.00;49325.41;5112155;28;20533;-76
2022/09/21 04:04:10;;;;;;;6.97;3.23;;;;;;;-141.28;100.00;49329.34;5111619;28;20535;-75
2022/09/21 04:06:37;;;;;;;3.90;3.13;;;;;;;-141.28;100.00;49352.88;5112902;28;20441;-75
2022/09/21 04:09:06;;;;;;;3.83;3.20;;;;;;;-141.28;100.00;49360.75;5098511;28;20541;-78
2022/09/21 04:11:34;;;;;;;4.80;3.60;;;;;;;-141.28;100.00;49394.09;5112815;28;20939;-76
2022/09/21 04:14:02;;;;;;;6.17;3.60;;;;;;;-141.28;100.00;49388.22;5098279;28;20464;-75
2022/09/21 04:16:29;;;;;;;9.50;3.53;;;;;;;-141.28;100.00;49405.88;5112268;28;20857;-77
2022/09/21 04:18:58;;;;;;;5.70;3.43;;;;;;;-141.28;100.00;49451.00;5107431;28;20491;-77
2022/09/21 04:21:25;;;;;;;4.50;3.30;;;;;;;-141.28;100.00;49437.25;5092046;28;20481;-74
2022/09/21 04:23:52;;;;;;;6.07;3.53;;;;;;;-141.28;100.00;49451.00;5073340;28;20454;-76
2022/09/21 04:26:24;;;;;;;6.33;3.50;;;;;;;-141.28;100.00;49470.63;5072397;28;20535;-75
2022/09/21 04:28:52;;;;;;;4.80;3.87;;;;;;;-141.28;100.00;49474.53;5054709;28;20508;-76
2022/09/21 04:31:19;;;;;;;8.53;3.60;;;;;;;-141.28;100.00;49458.84;5071996;28;20447;-76
2022/09/21 04:33:49;;;;;;;10.20;3.90;;;;;;;-141.28;100.00;49486.31;5071232;28;20454;-77
2022/09/21 04:36:17;;;;;;;6.67;3.80;;;;;;;-141.28;100.00;49502.03;5072532;28;20530;-76
2022/09/21 04:38:45;;;;;;;11.17;5.13;;;;;;;-141.28;100.00;49509.88;5072590;28;20512;-75
2022/09/21 04:41:13;;;;;;;5.97;3.97;;;;;;;-141.28;100.00;49509.88;5072850;28;20854;-75
2022/09/21 04:43:43;;;;;;;10.53;3.47;;;;;;;-141.28;100.00;49513.78;5080843;28;20871;-76
2022/09/21 04:46:11;;;;;;;4.80;4.13;;;;;;;-141.28;100.00;49509.88;5078363;28;20442;-75
2022/09/21 04:48:39;;;;;;;9.97;4.33;;;;;;;-141.28;100.00;49509.88;5072521;28;21034;-75
2022/09/21 04:51:08;;;;;;;11.27;4.50;;;;;;;-141.28;100.00;49523.59;5088366;28;20499;-76
2022/09/21 04:53:36;;;;;;;9.37;3.90;;;;;;;-141.28;100.00;49551.06;5091719;28;20468;-75
2022/09/21 04:56:04;;;;;;;12.87;5.03;;;;;;;-141.28;100.00;49545.19;5102407;28;20432;-75
2022/09/21 04:58:31;;;;;;;10.33;4.63;;;;;;;-141.28;100.00;49556.97;5120395;28;20898;-75
2022/09/21 05:00:59;;;;;;;17.97;4.47;;;;;;;-141.28;100.00;49553.03;5117723;28;20890;-74
2022/09/21 05:03:28;;;;;;;11.00;5.17;;;;;;;-141.28;100.00;49576.59;5111487;28;20448;-75
2022/09/21 05:05:57;;;;;;;13.17;4.57;;;;;;;-141.28;100.00;49607.97;5092962;28;20789;-74
2022/09/21 05:11:09;;;;;;;17.27;5.10;;;;;;;-141.28;100.00;49619.75;5110297;28;20429;-76
2022/09/21 05:13:36;;;;;;;10.20;4.60;;;;;;;-141.28;100.00;49584.44;5095161;28;20502;-75
2022/09/21 05:16:04;;;;;;;7.63;4.90;;;;;;;-141.28;100.00;49584.44;5070699;28;21003;-74
2022/09/21 05:18:31;;;;;;;7.50;5.10;;;;;;;-141.28;100.00;49588.34;5100452;28;20482;-74
2022/09/21 05:21:01;;;;;;;7.30;4.90;;;;;;;-141.28;100.00;49602.09;5102481;28;20547;-74
2022/09/21 05:23:29;;;;;;;10.20;6.87;;;;;;;-141.28;100.00;49588.34;5075581;28;20957;-75
2022/09/21 05:25:57;;;;;;;8.93;6.60;;;;;;;-141.28;100.00;49611.91;5071041;28;21026;-75
2022/09/21 05:28:24;;;;;;;9.30;4.10;;;;;;;-141.28;100.00;49604.06;5071287;28;20499;-77
2022/09/21 05:30:58;;;;;;;13.37;4.47;;;;;;;-141.28;100.00;49641.34;5053244;28;20488;-74
2022/09/21 05:33:29;;;;;;;8.43;3.90;;;;;;;-141.28;100.00;49653.13;5071922;28;20446;-76
2022/09/21 05:36:05;;;;;;;11.43;4.73;;;;;;;-141.28;100.00;49666.84;5071171;28;20826;-76
2022/09/21 05:38:32;;;;;;;6.90;4.40;;;;;;;-141.28;100.00;49688.44;5071341;28;20940;-76
2022/09/21 05:41:02;;;;;;;9.73;4.20;;;;;;;-141.28;100.00;49698.25;5084371;28;20223;-74
2022/09/21 05:43:29;;;;;;;7.53;4.53;;;;;;;-141.28;100.00;49743.38;5091350;28;20488;-74
2022/09/21 05:46:02;;;;;;;8.83;4.37;;;;;;;-141.28;100.00;49780.69;5077653;28;20442;-74
2022/09/21 05:48:37;;;;;;;13.40;4.40;;;;;;;-141.28;100.00;49784.59;5083137;28;20226;-75
2022/09/21 05:51:10;;;;;;;9.20;3.93;;;;;;;-141.28;100.00;49855.25;5087703;28;20195;-75
2022/09/21 05:53:50;;;;;;;6.97;4.70;;;;;;;-141.28;100.00;49896.47;5090740;28;20203;-77
2022/09/21 05:56:30;;;;;;;6.00;4.10;;;;;;;-141.28;100.00;49910.19;5077114;28;20472;-75
2022/09/21 05:59:06;;;;;;;14.57;4.53;;;;;;;-141.28;100.00;49961.22;5077780;28;20257;-75
2022/09/21 06:01:45;;;;;;;7.63;4.60;;;;;;;-141.28;100.00;50008.34;5080956;28;20223;-74
2022/09/21 06:04:15;;;;;;;8.43;3.83;;;;;;;-141.28;100.00;50078.97;5091885;28;20261;-76
2022/09/21 06:06:42;;;;;;;8.90;4.50;;;;;;;-141.28;100.00;50106.47;5081355;28;20204;-75
2022/09/21 06:09:08;;;;;;;9.40;4.50;;;;;;;-141.28;100.00;50116.28;5071664;28;20220;-75
2022/09/21 06:11:36;;;;;;;9.20;4.80;;;;;;;-141.28;100.00;50112.34;5070772;28;20277;-75
2022/09/21 06:14:05;;;;;;;9.93;4.63;;;;;;;-141.28;100.00;50157.50;5071373;28;20196;-75
2022/09/21 06:16:38;;;;;;;11.60;4.63;;;;;;;-141.28;100.00;50245.81;5072005;28;20204;-75
2022/09/21 06:19:05;;;;;;;7.20;4.80;;;;;;;-141.28;100.00;50253.66;5089553;28;20192;-76
2022/09/21 06:21:33;;;;;;;5.67;4.37;;;;;;;-141.28;100.00;50314.50;5087601;28;20238;-74
2022/09/21 06:24:01;;;;;;;7.60;4.13;;;;;;;-141.28;100.00;50351.81;5083073;28;20195;-77
2022/09/21 06:26:28;;;;;;;9.93;4.30;;;;;;;-141.28;100.00;50410.69;5082922;28;20200;-75
2022/09/21 06:28:55;;;;;;;8.97;4.70;;;;;;;-141.28;100.00;50416.56;5075029;28;20279;-74
2022/09/21 06:31:24;;;;;;;6.30;4.23;;;;;;;-141.28;100.00;50400.88;5087764;28;20195;-75
2022/09/21 06:33:53;;;;;;;8.20;4.67;;;;;;;-141.28;100.00;50473.50;5074202;28;20725;-75
2022/09/21 06:36:21;;;;;;;14.10;5.00;;;;;;;-141.28;100.00;50544.16;5089309;28;20239;-75
2022/09/21 06:38:49;;;;;;;10.17;5.30;;;;;;;-141.28;100.00;50603.06;5075146;28;20203;-75
2022/09/21 06:41:16;;;;;;;12.20;5.50;;;;;;;-141.28;100.00;50699.22;5088423;28;20249;-74
2022/09/21 06:43:42;;;;;;;7.23;5.23;;;;;;;-141.28;100.00;50779.72;5075395;28;20197;-76
2022/09/21 06:46:09;;;;;;;8.23;5.43;;;;;;;-141.28;100.00;50828.78;5076771;28;20230;-76
2022/09/21 06:48:36;;;;;;;10.20;5.30;;;;;;;-141.28;100.00;50978.00;5075007;28;20760;-75
2022/09/21 06:51:06;;;;;;;15.13;4.80;;;;;;;-141.28;100.00;51072.22;5078225;28;20204;-76
2022/09/21 06:53:34;;;;;;;13.93;4.90;;;;;;;-141.28;100.00;51111.50;5083972;28;20249;-75
2022/09/21 06:56:04;;;;;;;11.70;4.77;;;;;;;-141.28;100.00;51233.22;5093704;28;20204;-75
2022/09/21 06:58:33;;;;;;;9.03;4.60;;;;;;;-141.28;100.00;51404.03;5094492;28;20200;-75
2022/09/21 07:01:06;;;;;;;8.83;4.23;;;;;;;-141.28;100.00;51417.78;5078519;28;20224;-75
2022/09/21 07:03:34;;;;;;;4.53;3.30;;;;;;;-141.28;100.00;51339.22;5081164;28;20195;-75
2022/09/21 07:06:02;;;;;;;3.77;2.57;;;;;;;-141.28;100.00;51358.88;5107558;28;20252;-75
2022/09/21 07:08:31;;;;;;;6.17;2.43;;;;;;;-141.28;100.00;51368.69;5097107;28;20299;-75
2022/09/21 07:10:58;;;;;;;4.13;2.30;;;;;;;-141.28;100.00;51237.13;5103817;28;20625;-75
2022/09/21 07:13:27;;;;;;;3.60;2.20;;;;;;;-141.28;100.00;51127.19;5104886;28;20199;-75
2022/09/21 07:15:55;;;;;;;2.57;2.30;;;;;;;-141.28;100.00;51003.50;5106372;28;20212;-76
2022/09/21 07:18:22;;;;;;;3.67;2.10;;;;;;;-141.28;100.00;50985.84;5102417;28;20195;-74
2022/09/21 07:20:49;;;;;;;4.37;2.60;;;;;;;-141.28;100.00;50999.59;5112423;28;20329;-75
2022/09/21 07:23:18;;;;;;;2.40;2.20;;;;;;;-141.28;100.00;50976.03;5095177;28;20603;-77
2022/09/21 07:25:47;;;;;;;3.57;2.37;;;;;;;-141.28;100.00;50974.06;5082873;28;20646;-77
2022/09/21 07:28:15;;;;;;;5.07;2.73;;;;;;;-141.28;100.00;50954.44;5093023;28;20199;-76
2022/09/21 07:30:43;;;;;;;2.50;2.30;;;;;;;-141.28;100.00;50948.53;5080437;28;20199;-77
2022/09/21 07:33:10;;;;;;;2.87;2.10;;;;;;;-141.28;100.00;50919.09;5082313;28;20203;-76
2022/09/21 07:35:37;;;;;;;4.80;2.50;;;;;;;-141.28;100.00;50911.25;5077520;28;20276;-75
2022/09/21 07:38:06;;;;;;;4.03;2.40;;;;;;;-141.28;100.00;50905.34;5092752;28;20264;-75
2022/09/21 07:40:35;;;;;;;3.43;2.23;;;;;;;-141.28;100.00;50856.28;5093577;28;20276;-76
2022/09/21 07:43:02;;;;;;;3.20;2.10;;;;;;;-141.28;100.00;50915.16;5093703;28;20191;-75
2022/09/21 07:45:29;;;;;;;3.30;2.30;;;;;;;-141.28;100.00;50979.97;5087726;28;20572;-74
2022/09/21 07:48:03;;;;;;;3.00;2.23;;;;;;;-141.28;100.00;51115.41;5086333;28;20241;-76
2022/09/21 07:50:30;;;;;;;3.27;2.10;;;;;;;-141.28;100.00;51174.31;5073024;28;20228;-75
2022/09/21 07:53:00;;;;;;;5.10;2.30;;;;;;;-141.28;100.00;51111.50;5086826;28;20206;-75
2022/09/21 07:55:27;;;;;;;7.07;2.40;;;;;;;-141.28;100.00;51064.38;5081738;28;20232;-77
2022/09/21 08:00:40;;;;;;;2.80;2.40;;;;;;;-141.28;100.00;51032.97;5097141;28;20357;-77
2022/09/21 08:03:09;;;;;;;4.10;2.23;;;;;;;-141.28;100.00;50974.06;5092133;28;20678;-76
2022/09/21 08:05:39;;;;;;;4.50;2.37;;;;;;;-141.28;100.00;50966.22;5107424;28;20195;-74
2022/09/21 08:08:07;;;;;;;3.33;2.20;;;;;;;-141.28;100.00;50891.63;5095043;28;20226;-75
2022/09/21 08:10:36;;;;;;;3.87;2.50;;;;;;;-141.28;100.00;50860.19;5111365;28;20674;-75
2022/09/21 08:13:03;;;;;;;5.93;2.30;;;;;;;-141.28;100.00;50781.69;5112309;28;20210;-74
2022/09/21 08:15:32;;;;;;;7.37;2.47;;;;;;;-141.28;100.00;50714.94;5083255;28;20206;-76
2022/09/21 08:18:00;;;;;;;4.47;2.33;;;;;;;-141.28;100.00;50632.50;5092155;28;20195;-75
2022/09/21 08:20:29;;;;;;;2.67;2.03;;;;;;;-141.28;100.00;50552.00;5102162;28;20196;-73
2022/09/21 08:22:57;;;;;;;2.77;2.00;;;;;;;-141.28;100.00;50526.50;5082901;28;20222;-74
2022/09/21 08:25:24;;;;;;;4.07;2.20;;;;;;;-141.28;100.00;50389.09;5092666;28;20199;-74
2022/09/21 08:27:51;;;;;;;3.23;2.30;;;;;;;-141.28;100.00;50393.03;5082734;28;21035;-75
2022/09/21 08:30:18;;;;;;;5.67;2.30;;;;;;;-141.28;100.00;50440.13;5088122;28;20189;-76
2022/09/21 08:32:45;;;;;;;4.93;2.10;;;;;;;-141.28;100.00;50396.94;5084379;28;20251;-76
2022/09/21 08:35:11;;;;;;;5.17;2.20;;;;;;;-141.28;100.00;50322.34;5078083;28;20601;-75
2022/09/21 08:37:40;;;;;;;3.13;2.30;;;;;;;-141.28;100.00;50220.28;5084237;28;20199;-76
2022/09/21 08:40:08;;;;;;;7.10;2.43;;;;;;;-141.28;100.00;50184.97;5074603;28;20271;-75
2022/09/21 08:42:44;;;;;;;3.13;2.20;;;;;;;-141.28;100.00;50179.09;5078681;28;20230;-74
2022/09/21 08:45:21;;;;;;;3.17;2.13;;;;;;;-141.28;100.00;50090.75;5094063;28;20203;-75
2022/09/21 08:47:53;;;;;;;4.13;1.93;;;;;;;-141.28;100.00;50043.66;5075296;28;20579;-75
2022/09/21 08:50:45;;;;;;;4.00;2.30;;;;;;;-141.28;100.00;49984.78;5081923;28;20637;-74
2022/09/21 08:53:21;;;;;;;4.77;1.77;;;;;;;-141.28;100.00;49908.25;5092570;28;20635;-74
2022/09/21 08:55:51;;;;;;;3.00;1.90;;;;;;;-141.28;100.00;50261.50;5091793;28;20206;-76
2022/09/21 08:58:23;;;;;;;2.37;1.80;;;;;;;-141.28;100.00;50416.56;5100318;28;20250;-75
2022/09/21 09:01:09;;;;;;;1.93;1.60;;;;;;;-141.28;100.00;50432.28;5108435;28;20278;-77
2022/09/21 09:03:53;;;;;;;1.87;1.70;;;;;;;-141.28;100.00;50444.06;5079291;28;20617;-76
2022/09/21 09:06:27;;;;;;;5.50;1.83;;;;;;;-141.28;100.00;50442.09;5070691;28;20289;-76
2022/09/21 09:09:19;;;;;;;6.47;1.90;;;;;;;-141.28;100.00;50463.69;5086830;28;20238;-76
2022/09/21 09:12:02;;;;;;;2.10;1.60;;;;;;;-141.28;100.00;50340.03;5103746;28;20198;-77
2022/09/21 09:14:49;;;;;;;1.77;1.47;;;;;;;-141.28;100.00;50302.72;5102367;28;20551;-75
2022/09/21 09:17:32;;;;;;;1.50;1.40;;;;;;;-141.28;100.00;50290.97;5102409;28;20192;-76
2022/09/21 09:20:06;;;;;;;3.63;1.50;;;;;;;-141.28;100.00;50290.97;5103150;28;20195;-76
2022/09/21 09:22:39;;;;;;;2.70;1.63;;;;;;;-141.28;100.00;50236.00;5078911;28;20230;-75
2022/09/21 09:25:19;;;;;;;2.70;1.47;;;;;;;-141.28;100.00;50228.16;5091482;28;20710;-74
2022/09/21 09:27:48;;;;;;;1.73;1.30;;;;;;;-141.28;100.00;50188.91;5098585;28;20191;-75
2022/09/21 09:30:19;;;;;;;1.47;1.37;;;;;;;-141.28;100.00;50082.91;5093373;28;20191;-74
2022/09/21 09:32:55;;;;;;;4.60;1.23;;;;;;;-141.28;100.00;50037.78;5109953;28;20252;-75
2022/09/21 09:35:27;;;;;;;1.30;1.20;;;;;;;-141.28;100.00;49902.34;5083540;28;20198;-74
2022/09/21 09:37:58;;;;;;;2.03;1.50;;;;;;;-141.28;100.00;49902.34;5107858;28;20198;-75
2022/09/21 09:40:53;;;;;;;2.40;1.20;;;;;;;-141.28;100.00;49933.75;5089847;28;20214;-75
2022/09/21 09:43:32;;;;;;;2.23;1.20;;;;;;;-141.28;100.00;49863.09;5106492;28;20203;-74
2022/09/21 09:46:09;;;;;;;3.93;1.40;;;;;;;-141.28;100.00;49823.84;5107448;28;20199;-77
2022/09/21 09:48:50;;;;;;;2.40;1.17;;;;;;;-141.28;100.00;49753.19;5089672;28;20218;-76
2022/09/21 09:51:18;;;;;;;1.77;1.50;;;;;;;-141.28;100.00;49749.28;5101248;28;20253;-75
2022/09/21 09:53:45;;;;;;;1.93;1.53;;;;;;;-141.28;100.00;49737.50;5093738;28;20679;-76
2022/09/21 09:56:15;;;;;;;5.83;1.80;;;;;;;-141.28;100.00;49657.03;5112436;28;20191;-76
2022/09/21 09:58:48;;;;;;;1.40;1.30;;;;;;;-141.28;100.00;49666.84;5103710;28;20290;-75
2022/09/21 10:01:36;;;;;;;3.13;1.30;;;;;;;-141.28;100.00;49635.47;5080990;28;20227;-74
2022/09/21 10:04:08;;;;;;;3.87;1.50;;;;;;;-141.28;100.00;49545.19;5092214;28;20218;-75
2022/09/21 10:06:35;;;;;;;2.47;1.40;;;;;;;-141.28;100.00;49643.31;5094090;28;20285;-75
2022/09/21 10:09:17;;;;;;;2.80;1.60;;;;;;;-141.28;100.00;49507.91;5101672;28;20245;-74
2022/09/21 10:11:46;;;;;;;1.33;1.23;;;;;;;-141.28;100.00;49399.97;5116569;28;20209;-75
2022/09/21 10:14:20;;;;;;;1.47;1.37;;;;;;;-141.28;100.00;49384.28;5076215;28;20325;-76
2022/09/21 10:16:51;;;;;;;1.67;1.50;;;;;;;-141.28;100.00;49372.50;5074543;28;20283;-78
2022/09/21 10:19:23;;;;;;;3.03;1.50;;;;;;;-141.28;100.00;49429.41;5074724;28;20631;-77
2022/09/21 10:21:56;;;;;;;3.07;1.40;;;;;;;-141.28;100.00;49502.03;5089055;28;20215;-75
2022/09/21 10:24:26;;;;;;;3.60;1.47;;;;;;;-141.28;100.00;49482.41;5084676;28;20619;-74
2022/09/21 10:27:03;;;;;;;2.77;1.47;;;;;;;-141.28;100.00;49439.22;5087549;28;20280;-78
2022/09/21 10:29:33;;;;;;;2.70;1.10;;;;;;;-141.28;100.00;49466.69;5097379;28;20198;-75
2022/09/21 10:32:03;;;;;;;2.13;1.30;;;;;;;-141.28;100.00;49380.34;5077723;28;20204;-76
2022/09/21 10:34:37;;;;;;;1.87;1.23;;;;;;;-141.28;100.00;49447.06;5074479;28;20203;-77
2022/09/21 10:37:27;;;;;;;1.40;1.30;;;;;;;-141.28;100.00;49345.03;5081333;28;20195;-75
2022/09/21 10:39:56;;;;;;;2.80;1.40;;;;;;;-141.28;100.00;49295.97;5110928;28;20195;-76
2022/09/21 10:42:26;;;;;;;1.70;1.33;;;;;;;-141.28;100.00;49258.69;5092796;28;20710;-75
2022/09/21 10:45:14;;;;;;;2.37;1.30;;;;;;;-141.28;100.00;49235.16;5082865;28;20199;-74
2022/09/21 10:47:44;;;;;;;1.27;1.00;;;;;;;-141.28;100.00;49266.56;5113318;28;20646;-76
2022/09/21 10:50:26;;;;;;;9.33;1.23;;;;;;;-141.28;100.00;49288.13;5099097;28;20223;-77
2022/09/21 10:52:58;;;;;;;1.23;1.10;;;;;;;-141.28;100.00;49250.84;5090520;28;20199;-74
2022/09/21 10:55:27;;;;;;;1.43;1.30;;;;;;;-141.28;100.00;49203.75;5082805;28;20200;-77
2022/09/21 10:57:57;;;;;;;1.70;1.10;;;;;;;-141.28;100.00;49309.72;5086596;28;20217;-75
2022/09/21 11:00:37;;;;;;;2.70;1.10;;;;;;;-141.28;100.00;49721.81;5088033;28;20207;-74
2022/09/21 11:03:35;;;;;;;1.67;0.90;;;;;;;-141.28;100.00;49341.13;5075697;28;20223;-76
2022/09/21 11:06:06;;;;;;;1.33;1.03;;;;;;;-141.28;100.00;49297.94;5093995;28;20195;-75
2022/09/21 11:08:40;;;;;;;0.80;0.80;;;;;;;-141.28;100.00;49301.88;5080896;28;20328;-76
2022/09/21 11:11:25;;;;;;;1.33;1.03;;;;;;;-141.28;100.00;49254.78;5073740;28;20203;-76
2022/09/21 11:14:00;;;;;;;2.40;1.10;;;;;;;-141.28;100.00;49341.13;5078426;28;20298;-77
2022/09/21 11:16:36;;;;;;;1.70;1.17;;;;;;;-141.28;100.00;49352.88;5113461;28;20210;-76
2022/09/21 11:19:15;;;;;;;1.27;1.00;;;;;;;-141.28;100.00;49329.34;5112528;28;20197;-77
2022/09/21 11:21:48;;;;;;;1.70;1.20;;;;;;;-141.28;100.00;49337.19;5094462;28;20222;-75
2022/09/21 11:24:25;;;;;;;1.30;1.20;;;;;;;-141.28;100.00;49299.91;5113252;28;20734;-74
2022/09/21 11:26:58;;;;;;;0.97;0.93;;;;;;;-141.28;100.00;49266.56;5108756;28;20573;-76
2022/09/21 11:29:31;;;;;;;1.90;1.20;;;;;;;-141.28;93.79;49270.47;5103427;28;20195;-76
2022/09/21 11:32:16;;;;;;;2.07;1.10;;;;;;;-141.28;91.77;49270.47;5094038;28;20260;-74
2022/09/21 11:34:59;;;;;;;0.90;0.90;;;;;;;-141.28;86.47;49301.88;5107746;28;20194;-74